Time;durP1;ratioP1;P1;durP2;ratioP2;P2;SDS_P1;SDS_P2;PMS_P1;PMS_P2;Temp;Humidity;BMP_temperature;BMP_pressure;BME280_temperature;BME280_humidity;BME280_pressure;Samples;Min_cycle;Max_cycle;Signal;HPM_P1;HPM_P2
2023/06/24 00:02:06;;;;;;;1999.90;999.90;;;17.70;99.90;;;;;;4938052;29;20115;-72
2023/06/24 00:04:32;;;;;;;1999.90;999.90;;;17.60;99.90;;;;;;4937372;29;20186;-72
2023/06/24 00:06:59;;;;;;;1999.90;999.90;;;17.60;99.90;;;;;;4938292;29;20043;-72
2023/06/24 00:09:29;;;;;;;1999.90;999.90;;;17.60;99.90;;;;;;4937357;29;20063;-72
2023/06/24 00:11:56;;;;;;;1999.90;999.90;;;17.50;99.90;;;;;;4938240;29;20059;-72
2023/06/24 00:14:26;;;;;;;1999.90;999.90;;;17.50;99.90;;;;;;4937070;29;20047;-72
2023/06/24 00:16:56;;;;;;;1999.90;999.90;;;17.40;99.90;;;;;;4937100;29;20047;-72
2023/06/24 00:19:23;;;;;;;1999.90;999.90;;;17.40;99.90;;;;;;4921378;29;20079;-72
2023/06/24 00:21:53;;;;;;;1999.90;999.90;;;17.40;99.90;;;;;;4937008;29;20044;-71
2023/06/24 00:24:21;;;;;;;1999.90;999.90;;;17.30;99.90;;;;;;4938068;29;20132;-71
2023/06/24 00:26:47;;;;;;;1999.90;999.90;;;17.30;99.90;;;;;;4937421;29;20064;-72
2023/06/24 00:29:13;;;;;;;1999.90;999.90;;;17.30;99.90;;;;;;4936838;29;20083;-72
2023/06/24 00:31:39;;;;;;;1999.90;999.90;;;17.30;99.90;;;;;;4938574;29;20047;-72
2023/06/24 00:34:05;;;;;;;1999.90;999.90;;;17.30;99.90;;;;;;4936873;29;20499;-72
2023/06/24 00:36:31;;;;;;;1999.90;999.90;;;17.20;99.90;;;;;;4937813;29;20055;-72
2023/06/24 00:39:03;;;;;;;1999.90;999.90;;;17.20;99.90;;;;;;4937724;29;20455;-72
2023/06/24 00:41:33;;;;;;;1999.90;999.90;;;17.20;99.90;;;;;;4936636;29;20484;-72
2023/06/24 00:43:59;;;;;;;1999.90;999.90;;;17.20;99.90;;;;;;4937696;29;20539;-72
2023/06/24 00:46:25;;;;;;;1999.90;999.90;;;17.10;99.90;;;;;;4936555;29;20098;-72
2023/06/24 00:48:58;;;;;;;1999.90;999.90;;;17.10;99.90;;;;;;4936837;29;20056;-72
2023/06/24 00:51:29;;;;;;;1999.90;999.90;;;17.10;99.90;;;;;;4937578;29;20054;-72
2023/06/24 00:53:55;;;;;;;1999.90;999.90;;;17.10;99.90;;;;;;4937479;29;20052;-72
2023/06/24 00:56:25;;;;;;;1999.90;999.90;;;17.00;99.90;;;;;;4937063;29;20047;-72
2023/06/24 00:58:52;;;;;;;1999.90;999.90;;;17.00;99.90;;;;;;4936257;29;20054;-72
2023/06/24 01:01:18;;;;;;;1999.90;999.90;;;17.00;99.90;;;;;;4936295;29;20044;-72
2023/06/24 01:03:45;;;;;;;1999.90;999.90;;;17.00;99.90;;;;;;4937239;29;20064;-72
2023/06/24 01:06:11;;;;;;;1999.90;999.90;;;16.90;99.90;;;;;;4937264;29;20043;-72
2023/06/24 01:08:37;;;;;;;1999.90;999.90;;;16.90;99.90;;;;;;4937023;29;20056;-71
2023/06/24 01:11:03;;;;;;;1999.90;999.90;;;16.90;99.90;;;;;;4937034;29;20391;-71
2023/06/24 01:13:28;;;;;;;1999.90;999.90;;;16.90;99.90;;;;;;4937573;29;20043;-72
2023/06/24 01:15:55;;;;;;;1999.90;999.90;;;16.90;99.90;;;;;;4937188;29;20048;-72
2023/06/24 01:18:43;;;;;;;1999.90;999.90;;;16.90;99.90;;;;;;4936942;29;20090;-71
2023/06/24 01:21:21;;;;;;;1999.90;999.90;;;16.80;99.90;;;;;;4936824;29;20130;-72
2023/06/24 01:24:19;;;;;;;1999.90;999.90;;;16.80;99.90;;;;;;4937262;29;20082;-72
2023/06/24 01:27:26;;;;;;;1999.90;999.90;;;16.80;99.90;;;;;;4919953;29;20055;-72
2023/06/24 01:30:17;;;;;;;1999.90;999.90;;;16.70;99.90;;;;;;4936359;29;20493;-72
2023/06/24 01:33:08;;;;;;;1999.90;999.90;;;16.70;99.90;;;;;;4936825;29;20126;-72
2023/06/24 01:35:36;;;;;;;1999.90;999.90;;;16.70;99.90;;;;;;4936861;29;20128;-72
2023/06/24 01:38:09;;;;;;;1999.90;999.90;;;16.70;99.90;;;;;;4936762;29;20056;-72
2023/06/24 01:40:41;;;;;;;1999.90;999.90;;;16.60;99.90;;;;;;4936972;29;20047;-72
2023/06/24 01:43:09;;;;;;;1999.90;999.90;;;16.60;99.90;;;;;;4936756;29;20122;-72
2023/06/24 01:45:42;;;;;;;1999.90;999.90;;;16.60;99.90;;;;;;4936388;29;20051;-72
2023/06/24 01:48:14;;;;;;;1999.90;999.90;;;16.60;99.90;;;;;;4936616;29;20052;-71
2023/06/24 01:50:48;;;;;;;1999.90;999.90;;;16.60;99.90;;;;;;4936420;29;20098;-71
2023/06/24 01:53:16;;;;;;;1999.90;999.90;;;16.60;99.90;;;;;;4936538;29;20118;-72
2023/06/24 01:55:44;;;;;;;1999.90;999.90;;;16.50;99.90;;;;;;4936389;29;20055;-72
2023/06/24 01:58:13;;;;;;;1999.90;999.90;;;16.50;99.90;;;;;;4935920;29;20083;-72
2023/06/24 02:00:40;;;;;;;1999.90;999.90;;;16.50;99.90;;;;;;4935982;29;20078;-72
2023/06/24 02:03:07;;;;;;;1999.90;999.90;;;16.50;99.90;;;;;;4936117;29;20054;-72
2023/06/24 02:05:33;;;;;;;1999.90;999.90;;;16.50;99.90;;;;;;4936399;29;20187;-72
2023/06/24 02:08:01;;;;;;;1999.90;999.90;;;16.50;99.90;;;;;;4936343;29;20131;-72
2023/06/24 02:10:28;;;;;;;1999.90;999.90;;;16.40;99.90;;;;;;4936217;29;20164;-72
2023/06/24 02:12:55;;;;;;;1999.90;999.90;;;16.40;99.90;;;;;;4936255;29;20456;-72
2023/06/24 02:15:22;;;;;;;1999.90;999.90;;;16.40;99.90;;;;;;4935263;29;20099;-71
2023/06/24 02:17:52;;;;;;;1999.90;999.90;;;16.40;99.90;;;;;;4936275;29;20412;-72
2023/06/24 02:20:19;;;;;;;1999.90;999.90;;;16.40;99.90;;;;;;4936237;29;20079;-72
2023/06/24 02:22:45;;;;;;;1999.90;999.90;;;16.30;99.90;;;;;;4934765;29;20551;-72
2023/06/24 02:25:12;;;;;;;1999.90;999.90;;;16.30;99.90;;;;;;4936068;29;20492;-72
2023/06/24 02:27:38;;;;;;;1999.90;999.90;;;16.30;99.90;;;;;;4934412;29;20066;-72
2023/06/24 02:30:07;;;;;;;1999.90;999.90;;;16.30;99.90;;;;;;4935766;29;20071;-71
2023/06/24 02:32:33;;;;;;;1999.90;999.90;;;16.30;99.90;;;;;;4936144;29;20044;-71
2023/06/24 02:34:59;;;;;;;1999.90;999.90;;;16.30;99.90;;;;;;4934879;29;20127;-72
2023/06/24 02:37:25;;;;;;;1999.90;999.90;;;16.30;99.90;;;;;;4919220;29;20060;-72
2023/06/24 02:39:51;;;;;;;1999.90;999.90;;;16.40;99.90;;;;;;4935806;29;20058;-72
2023/06/24 02:42:16;;;;;;;1999.90;999.90;;;16.40;99.90;;;;;;4935844;29;20130;-71
2023/06/24 02:44:42;;;;;;;1999.90;999.90;;;16.40;99.90;;;;;;4935849;29;20090;-72
2023/06/24 02:47:12;;;;;;;1999.90;999.90;;;16.40;99.90;;;;;;4934783;29;20464;-72
2023/06/24 02:49:39;;;;;;;1999.90;999.90;;;16.40;99.90;;;;;;4934737;29;20465;-72
2023/06/24 02:52:05;;;;;;;1999.90;999.90;;;16.40;99.90;;;;;;4918930;29;20183;-72
2023/06/24 02:54:32;;;;;;;1999.90;999.90;;;16.40;99.90;;;;;;4935909;29;20130;-72
2023/06/24 02:56:59;;;;;;;1999.90;999.90;;;16.40;99.90;;;;;;4935389;29;20056;-71
2023/06/24 02:59:25;;;;;;;1999.90;999.90;;;16.40;99.90;;;;;;4918627;29;20056;-71
2023/06/24 03:01:54;;;;;;;1999.90;999.90;;;16.40;99.90;;;;;;4935869;29;20531;-71
2023/06/24 03:04:20;;;;;;;1999.90;999.90;;;17.20;99.90;;;;;;4935763;29;20517;-72
2023/06/24 03:06:49;;;;;;;1999.90;999.90;;;16.30;99.90;;;;;;4934573;29;20051;-72
2023/06/24 03:09:15;;;;;;;1999.90;999.90;;;16.30;99.90;;;;;;4935648;29;20051;-72
2023/06/24 03:11:42;;;;;;;1999.90;999.90;;;16.30;99.90;;;;;;4936753;29;20416;-72
2023/06/24 03:14:08;;;;;;;1999.90;999.90;;;16.30;99.90;;;;;;4939708;29;20126;-72
2023/06/24 03:16:34;;;;;;;1999.90;999.90;;;16.20;99.90;;;;;;4938101;29;20146;-71
2023/06/24 03:19:00;;;;;;;1999.90;999.90;;;16.20;99.90;;;;;;4939301;29;20095;-72
2023/06/24 03:21:28;;;;;;;1999.90;999.90;;;16.20;99.90;;;;;;4938364;29;20463;-72
2023/06/24 03:23:54;;;;;;;1999.90;999.90;;;16.20;99.90;;;;;;4921855;29;20047;-72
2023/06/24 03:26:20;;;;;;;1999.90;999.90;;;16.20;99.90;;;;;;4937205;29;20039;-71
2023/06/24 03:28:46;;;;;;;1999.90;999.90;;;16.20;99.90;;;;;;4937661;29;20071;-72
2023/06/24 03:31:15;;;;;;;1999.90;999.90;;;16.20;99.90;;;;;;4939067;29;20448;-72
2023/06/24 03:33:44;;;;;;;1999.90;999.90;;;16.20;99.90;;;;;;4938795;29;20567;-72
2023/06/24 03:36:10;;;;;;;1999.90;999.90;;;16.20;99.90;;;;;;4937838;29;20059;-72
2023/06/24 03:38:36;;;;;;;1999.90;999.90;;;16.20;99.90;;;;;;4938715;29;20055;-72
2023/06/24 03:41:02;;;;;;;1999.90;999.90;;;16.20;99.90;;;;;;4938808;29;20066;-72
2023/06/24 03:43:27;;;;;;;1999.90;999.90;;;16.20;99.90;;;;;;4938069;29;20035;-72
2023/06/24 03:45:53;;;;;;;1999.90;999.90;;;16.10;99.90;;;;;;4938744;29;20096;-72
2023/06/24 03:48:19;;;;;;;1999.90;999.90;;;16.10;99.90;;;;;;4937563;29;20052;-72
2023/06/24 03:50:44;;;;;;;1999.90;999.90;;;16.20;99.90;;;;;;4937662;29;20043;-72
2023/06/24 03:53:10;;;;;;;1999.90;999.90;;;16.10;99.90;;;;;;4938584;29;20043;-71
2023/06/24 03:55:36;;;;;;;1999.90;999.90;;;16.10;99.90;;;;;;4938293;29;20403;-72
2023/06/24 03:58:01;;;;;;;1999.90;999.90;;;16.20;99.90;;;;;;4938337;29;20051;-71
2023/06/24 04:00:27;;;;;;;1999.90;999.90;;;16.20;99.90;;;;;;4937523;29;20062;-71
2023/06/24 04:02:53;;;;;;;1999.90;999.90;;;16.20;99.90;;;;;;4938339;29;20069;-72
2023/06/24 04:05:20;;;;;;;1999.90;999.90;;;16.20;99.90;;;;;;4938525;29;20102;-72
2023/06/24 04:07:50;;;;;;;1999.90;999.90;;;16.20;99.90;;;;;;4938253;29;20050;-72
2023/06/24 04:10:17;;;;;;;1999.90;999.90;;;16.30;99.90;;;;;;4937025;29;20100;-71
2023/06/24 04:12:44;;;;;;;1999.90;999.90;;;16.30;99.90;;;;;;4938595;29;20043;-72
2023/06/24 04:15:10;;;;;;;1999.90;999.90;;;16.30;99.90;;;;;;4937074;29;20058;-72
2023/06/24 04:17:36;;;;;;;1999.90;999.90;;;16.40;99.90;;;;;;4937154;29;20055;-72
2023/06/24 04:20:04;;;;;;;1999.90;999.90;;;16.40;99.90;;;;;;4936863;29;20050;-72
2023/06/24 04:22:30;;;;;;;1999.90;999.90;;;16.40;99.90;;;;;;4936543;29;20435;-72
2023/06/24 04:24:55;;;;;;;1999.90;999.90;;;16.40;99.90;;;;;;4937924;29;20139;-72
2023/06/24 04:27:21;;;;;;;1999.90;999.90;;;16.50;99.90;;;;;;4937371;29;20171;-72
2023/06/24 04:29:47;;;;;;;1999.90;999.90;;;16.50;99.90;;;;;;4937886;29;20059;-71
2023/06/24 04:32:12;;;;;;;1999.90;999.90;;;16.50;99.90;;;;;;4938109;29;20058;-72
2023/06/24 04:34:40;;;;;;;1999.90;999.90;;;16.50;99.90;;;;;;4937982;29;20082;-72
2023/06/24 04:37:06;;;;;;;1999.90;999.90;;;16.60;99.90;;;;;;4936667;29;20056;-72
2023/06/24 04:39:31;;;;;;;1999.90;999.90;;;16.60;99.90;;;;;;4920765;29;20133;-72
2023/06/24 04:41:57;;;;;;;1999.90;999.90;;;16.50;99.90;;;;;;4936712;29;20128;-72
2023/06/24 04:44:23;;;;;;;1999.90;999.90;;;16.60;99.90;;;;;;4937635;29;20052;-72
2023/06/24 04:46:48;;;;;;;1999.90;999.90;;;16.60;99.90;;;;;;4937622;29;20226;-72
2023/06/24 04:49:14;;;;;;;1999.90;999.90;;;16.60;99.90;;;;;;4936370;29;20550;-72
2023/06/24 04:51:40;;;;;;;1999.90;999.90;;;16.70;99.90;;;;;;4936465;29;20052;-72
2023/06/24 04:54:07;;;;;;;1999.90;999.90;;;16.70;99.90;;;;;;4937308;29;20079;-72
2023/06/24 04:56:34;;;;;;;1999.90;999.90;;;16.70;99.90;;;;;;4920082;29;20051;-72
2023/06/24 04:59:00;;;;;;;1999.90;999.90;;;16.70;99.90;;;;;;4937784;29;20456;-72
2023/06/24 05:01:26;;;;;;;1999.90;999.90;;;16.80;99.90;;;;;;4937309;29;20060;-72
2023/06/24 05:03:52;;;;;;;1999.90;999.90;;;16.80;99.90;;;;;;4936017;29;20052;-72
2023/06/24 05:06:17;;;;;;;1999.90;999.90;;;16.80;99.90;;;;;;4935949;29;20047;-71
2023/06/24 05:08:43;;;;;;;1999.90;999.90;;;16.90;99.90;;;;;;4937051;29;20087;-71
2023/06/24 05:11:09;;;;;;;1999.90;999.90;;;16.90;99.90;;;;;;4936307;29;20051;-72
2023/06/24 05:13:35;;;;;;;1999.90;999.90;;;16.90;99.90;;;;;;4937101;29;20126;-71
2023/06/24 05:16:00;;;;;;;1999.90;999.90;;;17.00;99.90;;;;;;4937139;29;20078;-71
2023/06/24 05:18:26;;;;;;;1999.90;999.90;;;17.00;99.90;;;;;;4935849;29;20082;-71
2023/06/24 05:20:52;;;;;;;1999.90;999.90;;;17.00;99.90;;;;;;4936754;29;20052;-72
2023/06/24 05:23:18;;;;;;;1999.90;999.90;;;17.10;99.90;;;;;;4935645;29;20047;-71
2023/06/24 05:25:43;;;;;;;1999.90;999.90;;;17.10;99.90;;;;;;4936950;29;20056;-71
2023/06/24 05:28:09;;;;;;;1999.90;999.90;;;17.20;99.90;;;;;;4934946;29;20068;-71
2023/06/24 05:30:35;;;;;;;1999.90;999.90;;;17.20;99.90;;;;;;4936818;29;20099;-71
2023/06/24 05:33:01;;;;;;;1999.90;999.90;;;17.30;99.90;;;;;;4935755;29;20044;-71
2023/06/24 05:35:26;;;;;;;1999.90;999.90;;;17.30;99.90;;;;;;4936191;29;20062;-71
2023/06/24 05:37:52;;;;;;;1999.90;999.90;;;17.40;99.90;;;;;;4935600;29;20090;-72
2023/06/24 05:40:18;;;;;;;1999.90;999.90;;;17.40;99.90;;;;;;4936733;29;20123;-71
2023/06/24 05:42:43;;;;;;;1999.90;999.90;;;17.40;99.90;;;;;;4936882;29;20039;-71
2023/06/24 05:45:09;;;;;;;1999.90;999.90;;;17.40;99.90;;;;;;4936655;29;20564;-71
2023/06/24 05:47:36;;;;;;;1999.90;999.90;;;17.50;99.90;;;;;;4935773;29;20118;-71
2023/06/24 05:50:02;;;;;;;1999.90;999.90;;;17.60;99.90;;;;;;4936567;29;20055;-71
2023/06/24 05:52:29;;;;;;;1999.90;999.90;;;17.60;99.90;;;;;;4935393;29;20052;-71
2023/06/24 05:54:54;;;;;;;1999.90;999.90;;;17.70;99.90;;;;;;4935630;29;20048;-71
2023/06/24 05:57:20;;;;;;;1999.90;999.90;;;17.70;99.90;;;;;;4919169;29;20055;-71
2023/06/24 05:59:46;;;;;;;1999.90;999.90;;;17.80;99.90;;;;;;4936461;29;20043;-71
2023/06/24 06:02:11;;;;;;;1999.90;999.90;;;17.80;99.90;;;;;;4935202;29;20506;-71
2023/06/24 06:04:38;;;;;;;1999.90;999.90;;;17.90;99.90;;;;;;4935079;29;20079;-71
2023/06/24 06:07:04;;;;;;;1999.90;999.90;;;17.90;99.90;;;;;;4935304;29;20491;-71
2023/06/24 06:09:30;;;;;;;1999.90;999.90;;;18.00;99.90;;;;;;4903831;29;20146;-71
2023/06/24 06:11:56;;;;;;;1999.90;999.90;;;18.00;99.90;;;;;;4935386;29;20047;-72
2023/06/24 06:14:21;;;;;;;1999.90;999.90;;;18.10;99.90;;;;;;4936281;29;20043;-71
2023/06/24 06:16:47;;;;;;;1999.90;999.90;;;18.10;99.90;;;;;;4936218;29;20676;-71
2023/06/24 06:19:13;;;;;;;1999.90;999.90;;;18.20;99.90;;;;;;4919324;29;20064;-71
2023/06/24 06:21:38;;;;;;;1999.90;999.90;;;18.30;99.90;;;;;;4934963;29;20053;-70
2023/06/24 06:24:05;;;;;;;1999.90;999.90;;;18.40;99.90;;;;;;4936265;29;20050;-71
2023/06/24 06:26:30;;;;;;;1999.90;999.90;;;18.40;99.90;;;;;;4935793;29;20095;-70
2023/06/24 06:28:56;;;;;;;1999.90;999.90;;;18.50;99.90;;;;;;4935704;29;20403;-72
2023/06/24 06:31:22;;;;;;;1999.90;999.90;;;18.60;99.90;;;;;;4935965;29;20098;-72
2023/06/24 06:33:48;;;;;;;1999.90;999.90;;;18.60;99.90;;;;;;4934888;29;20052;-72
2023/06/24 06:36:14;;;;;;;1999.90;999.90;;;18.70;99.90;;;;;;4934750;29;20108;-72
2023/06/24 06:38:40;;;;;;;1999.90;999.90;;;18.80;99.90;;;;;;4935660;29;20058;-71
2023/06/24 06:41:06;;;;;;;1999.90;999.90;;;18.90;99.90;;;;;;4934726;29;20485;-71
2023/06/24 06:43:33;;;;;;;1999.90;999.90;;;19.00;99.90;;;;;;4935797;29;20072;-71
2023/06/24 06:45:59;;;;;;;1999.90;999.90;;;19.10;99.90;;;;;;4937704;28;20130;-72
2023/06/24 06:48:25;;;;;;;1999.90;999.90;;;19.20;99.90;;;;;;4939797;29;20135;-72
2023/06/24 06:50:52;;;;;;;1999.90;999.90;;;19.30;99.90;;;;;;4939552;29;20058;-73
2023/06/24 06:53:18;;;;;;;1999.90;999.90;;;19.40;99.90;;;;;;4938853;29;20122;-72
2023/06/24 06:55:44;;;;;;;1999.90;999.90;;;19.50;99.90;;;;;;4939579;29;20047;-72
2023/06/24 06:58:09;;;;;;;1999.90;999.90;;;19.60;99.90;;;;;;4937920;29;20048;-73
2023/06/24 07:00:35;;;;;;;1999.90;999.90;;;19.70;99.90;;;;;;4938393;29;20055;-72
2023/06/24 07:03:01;;;;;;;1999.90;999.90;;;19.80;99.90;;;;;;4939342;29;20127;-72
2023/06/24 07:05:26;;;;;;;1999.90;999.90;;;19.90;99.90;;;;;;4939509;29;20481;-72
2023/06/24 07:07:53;;;;;;;1999.90;999.90;;;20.00;99.90;;;;;;4939217;29;20055;-72
2023/06/24 07:10:19;;;;;;;1999.90;999.90;;;20.10;99.90;;;;;;4922611;29;20047;-72
2023/06/24 07:12:46;;;;;;;1999.90;999.90;;;20.10;99.90;;;;;;4939373;29;20126;-72
2023/06/24 07:15:11;;;;;;;1999.90;999.90;;;20.20;99.90;;;;;;4939452;29;20570;-73
2023/06/24 07:17:37;;;;;;;1999.90;999.90;;;20.30;99.90;;;;;;4937955;29;20091;-72
2023/06/24 07:20:03;;;;;;;1999.90;999.90;;;20.40;99.90;;;;;;4939055;29;20053;-73
2023/06/24 07:22:30;;;;;;;1999.90;999.90;;;20.40;99.90;;;;;;4938125;29;20078;-73
2023/06/24 07:24:57;;;;;;;1999.90;999.90;;;20.50;99.90;;;;;;4938000;29;20087;-73
2023/06/24 07:27:22;;;;;;;1999.90;999.90;;;20.50;99.90;;;;;;4938711;29;20059;-72
2023/06/24 07:29:48;;;;;;;1999.90;999.90;;;20.60;99.90;;;;;;4937594;29;20055;-72
2023/06/24 07:32:14;;;;;;;1999.90;999.90;;;20.70;99.90;;;;;;4938702;29;20079;-72
2023/06/24 07:34:39;;;;;;;1999.90;999.90;;;20.70;99.90;;;;;;4922148;29;20090;-72
2023/06/24 07:37:05;;;;;;;1999.90;999.90;;;20.80;99.90;;;;;;4939331;29;20559;-72
2023/06/24 07:39:31;;;;;;;1999.90;999.90;;;20.90;99.90;;;;;;4938780;29;20480;-72
2023/06/24 07:41:57;;;;;;;1999.90;999.90;;;21.00;99.90;;;;;;4937886;29;20563;-72
2023/06/24 07:44:22;;;;;;;1999.90;999.90;;;21.00;99.90;;;;;;4938913;29;20048;-72
2023/06/24 07:46:50;;;;;;;1999.90;999.90;;;21.10;99.90;;;;;;4938963;29;20507;-72
2023/06/24 07:49:17;;;;;;;1999.90;999.90;;;21.10;99.90;;;;;;4937758;29;20496;-71
2023/06/24 07:51:44;;;;;;;1999.90;999.90;;;21.20;99.90;;;;;;4939058;29;20078;-71
2023/06/24 07:54:10;;;;;;;1999.90;999.90;;;21.30;99.90;;;;;;4928739;29;20400;-69
2023/06/24 07:56:36;;;;;;;1999.90;999.90;;;21.40;99.90;;;;;;4902752;29;20059;-71
2023/06/24 07:59:02;;;;;;;1999.90;999.90;;;21.50;99.90;;;;;;4917727;29;20048;-70
2023/06/24 08:01:28;;;;;;;1999.90;999.90;;;21.50;99.90;;;;;;4918583;29;20500;-69
2023/06/24 08:03:54;;;;;;;1999.90;999.90;;;21.50;99.90;;;;;;4919416;29;20087;-71
2023/06/24 08:06:20;;;;;;;1999.90;999.90;;;21.60;99.90;;;;;;4919412;29;20048;-70
2023/06/24 08:08:46;;;;;;;1999.90;999.90;;;21.60;99.90;;;;;;4918881;29;20048;-70
2023/06/24 08:11:12;;;;;;;1999.90;999.90;;;21.60;99.90;;;;;;4918093;29;20481;-70
2023/06/24 08:13:38;;;;;;;1999.90;999.90;;;21.60;99.90;;;;;;4919154;29;20661;-70
2023/06/24 08:16:04;;;;;;;1999.90;999.90;;;21.70;99.90;;;;;;4919331;29;20051;-70
2023/06/24 08:18:30;;;;;;;1999.90;999.90;;;21.70;99.90;;;;;;4917848;29;20044;-69
2023/06/24 08:20:55;;;;;;;1999.90;999.90;;;21.80;99.90;;;;;;4919173;29;20062;-69
2023/06/24 08:23:21;;;;;;;1999.90;999.90;;;21.90;99.90;;;;;;4919106;29;20468;-70
2023/06/24 08:25:47;;;;;;;1999.90;999.90;;;22.00;99.90;;;;;;4928080;29;20050;-70
2023/06/24 08:28:13;;;;;;;1999.90;999.90;;;22.10;99.90;;;;;;4936097;29;20055;-70
2023/06/24 08:30:38;;;;;;;1999.90;999.90;;;22.20;99.90;;;;;;4937922;29;20070;-70
2023/06/24 08:33:04;;;;;;;1999.90;999.90;;;22.30;99.90;;;;;;4937722;29;20079;-70
2023/06/24 08:35:30;;;;;;;1999.90;999.90;;;22.30;99.90;;;;;;4936808;29;20052;-71
2023/06/24 08:37:55;;;;;;;1999.90;999.90;;;22.40;99.90;;;;;;4921358;29;20091;-71
2023/06/24 08:40:21;;;;;;;1999.90;999.90;;;22.40;99.90;;;;;;4932322;29;20039;-71
2023/06/24 08:42:47;;;;;;;1999.90;999.90;;;22.50;99.90;;;;;;4935420;29;20119;-71
2023/06/24 08:45:12;;;;;;;1999.90;999.90;;;22.50;99.90;;;;;;4927018;29;20051;-71
2023/06/24 08:47:39;;;;;;;1999.90;999.90;;;22.60;99.90;;;;;;4917166;29;20381;-70
2023/06/24 08:50:11;;;;;;;1999.90;999.90;;;22.70;99.90;;;;;;4902007;29;20405;-70
2023/06/24 08:52:38;;;;;;;1999.90;999.90;;;22.70;99.90;;;;;;4918875;29;20484;-70
2023/06/24 08:55:06;;;;;;;1999.90;999.90;;;22.70;99.90;;;;;;4918674;29;20059;-71
2023/06/24 08:57:32;;;;;;;1999.90;999.90;;;22.80;99.90;;;;;;4918261;29;20047;-70
2023/06/24 08:59:57;;;;;;;1999.90;999.90;;;22.90;99.90;;;;;;4918555;29;20409;-71
2023/06/24 09:02:23;;;;;;;1999.90;999.90;;;22.90;99.90;;;;;;4921701;29;20127;-70
2023/06/24 09:04:51;;;;;;;1999.90;999.90;;;23.00;99.90;;;;;;4908513;29;20048;-71
2023/06/24 09:07:30;;;;;;;1999.90;999.90;;;23.00;99.90;;;;;;4908960;29;20052;-70
2023/06/24 09:09:56;;;;;;;1999.90;999.90;;;23.00;99.90;;;;;;4907736;29;20055;-72
2023/06/24 09:12:23;;;;;;;1999.90;999.90;;;23.10;99.90;;;;;;4906178;29;20064;-71
2023/06/24 09:14:50;;;;;;;1999.90;999.90;;;23.10;99.90;;;;;;4907898;29;20135;-71
2023/06/24 09:17:17;;;;;;;1999.90;999.90;;;23.20;99.90;;;;;;4908581;29;20051;-71
2023/06/24 09:19:43;;;;;;;1999.90;999.90;;;23.20;99.90;;;;;;4907270;29;20053;-72
2023/06/24 09:22:17;;;;;;;1999.90;999.90;;;23.20;99.90;;;;;;4909002;29;20036;-71
2023/06/24 09:24:47;;;;;;;1999.90;999.90;;;23.30;99.90;;;;;;4907945;29;20044;-71
2023/06/24 09:27:14;;;;;;;1999.90;999.90;;;23.30;99.90;;;;;;4906005;29;20446;-71
2023/06/24 09:29:41;;;;;;;1999.90;999.90;;;23.30;99.90;;;;;;4906007;29;20580;-71
2023/06/24 09:32:07;;;;;;;1999.90;999.90;;;23.30;99.90;;;;;;4907145;29;20044;-71
2023/06/24 09:34:34;;;;;;;1999.90;999.90;;;23.40;99.90;;;;;;4906761;29;20548;-71
2023/06/24 09:37:00;;;;;;;1999.90;999.90;;;23.40;99.90;;;;;;4908723;29;20111;-71
2023/06/24 09:39:30;;;;;;;1999.90;999.90;;;23.50;99.90;;;;;;4906863;29;20353;-70
2023/06/24 09:42:00;;;;;;;1999.90;999.90;;;23.60;99.90;;;;;;4907523;29;20054;-70
2023/06/24 09:44:27;;;;;;;1999.90;999.90;;;23.70;99.90;;;;;;4908566;29;20082;-70
2023/06/24 09:46:53;;;;;;;1999.90;999.90;;;23.70;99.90;;;;;;4923029;29;20044;-70
2023/06/24 09:49:19;;;;;;;1999.90;999.90;;;23.80;99.90;;;;;;4911271;29;20048;-71
2023/06/24 09:51:47;;;;;;;1999.90;999.90;;;23.80;99.90;;;;;;4916175;29;20567;-70
2023/06/24 09:54:14;;;;;;;1999.90;999.90;;;23.80;99.90;;;;;;4917172;29;20088;-72
2023/06/24 09:56:50;;;;;;;1999.90;999.90;;;23.90;99.90;;;;;;4928553;29;20048;-72
2023/06/24 09:59:22;;;;;;;1999.90;999.90;;;23.90;99.90;;;;;;4899671;29;20044;-72
2023/06/24 10:01:49;;;;;;;1999.90;999.90;;;24.00;99.90;;;;;;4917482;29;20099;-71
2023/06/24 10:04:21;;;;;;;1999.90;999.90;;;24.00;99.90;;;;;;4928649;29;20044;-72
2023/06/24 10:06:48;;;;;;;1999.90;999.90;;;24.00;99.90;;;;;;4935277;29;20111;-71
2023/06/24 10:09:16;;;;;;;1999.90;999.90;;;24.10;99.90;;;;;;4929275;29;20119;-70
2023/06/24 10:11:44;;;;;;;1999.90;999.90;;;24.20;99.90;;;;;;4916025;29;20448;-71
2023/06/24 10:14:10;;;;;;;1999.90;999.90;;;24.30;99.90;;;;;;4916853;29;20048;-71
2023/06/24 10:16:36;;;;;;;1999.90;999.90;;;24.30;99.90;;;;;;4917183;29;20052;-70
2023/06/24 10:19:02;;;;;;;1999.90;999.90;;;24.40;99.90;;;;;;4915139;29;20052;-71
2023/06/24 10:21:51;;;;;;;1999.90;999.90;;;24.40;99.90;;;;;;4916653;29;20055;-70
2023/06/24 10:24:34;;;;;;;1999.90;999.90;;;24.40;99.90;;;;;;4913630;29;20443;-71
2023/06/24 10:27:07;;;;;;;1999.90;999.90;;;24.40;99.90;;;;;;4913021;29;20060;-71
2023/06/24 10:29:37;;;;;;;1999.90;999.90;;;24.40;99.90;;;;;;4911783;29;20150;-70
2023/06/24 10:32:12;;;;;;;1999.90;999.90;;;24.40;99.90;;;;;;4913191;29;20505;-70
2023/06/24 10:34:42;;;;;;;1999.90;999.90;;;24.40;99.90;;;;;;4913572;29;20064;-71
2023/06/24 10:37:13;;;;;;;1999.90;999.90;;;24.40;99.90;;;;;;4913555;29;20090;-71
2023/06/24 10:39:59;;;;;;;1999.90;999.90;;;24.40;99.90;;;;;;4912499;29;20134;-71
2023/06/24 10:42:28;;;;;;;1999.90;999.90;;;24.40;99.90;;;;;;4912216;29;20070;-71
2023/06/24 10:45:26;;;;;;;1999.90;999.90;;;24.40;99.90;;;;;;4913552;29;20666;-72
2023/06/24 10:47:59;;;;;;;1999.90;999.90;;;24.40;99.90;;;;;;4903852;29;20481;-71
2023/06/24 10:50:25;;;;;;;1999.90;999.90;;;24.30;99.90;;;;;;4913280;29;20106;-71
2023/06/24 10:52:56;;;;;;;1999.90;999.90;;;24.30;99.90;;;;;;4913294;29;20723;-72
2023/06/24 10:55:26;;;;;;;1999.90;999.90;;;24.30;99.90;;;;;;4913610;29;20169;-71
2023/06/24 10:57:52;;;;;;;1999.90;999.90;;;24.30;99.90;;;;;;4913141;29;20048;-72
2023/06/24 11:00:19;;;;;;;1999.90;999.90;;;24.30;99.90;;;;;;4913400;29;20719;-72
2023/06/24 11:02:45;;;;;;;1999.90;999.90;;;24.40;99.90;;;;;;4912018;29;20618;-72
2023/06/24 11:05:11;;;;;;;1999.90;999.90;;;24.50;99.90;;;;;;4911703;29;20083;-71
2023/06/24 11:07:38;;;;;;;1999.90;999.90;;;24.60;99.90;;;;;;4913175;29;20067;-72
2023/06/24 11:10:08;;;;;;;1999.90;999.90;;;24.60;99.90;;;;;;4912438;29;20060;-71
2023/06/24 11:12:35;;;;;;;1999.90;999.90;;;24.60;99.90;;;;;;4912359;29;20059;-71
2023/06/24 11:15:06;;;;;;;1999.90;999.90;;;24.70;99.90;;;;;;4911192;29;20460;-71
2023/06/24 11:17:36;;;;;;;1999.90;999.90;;;24.90;99.90;;;;;;4907379;29;20493;-72
2023/06/24 11:20:06;;;;;;;1999.90;999.90;;;24.90;99.90;;;;;;4906059;29;20547;-72
2023/06/24 11:22:32;;;;;;;1999.90;999.90;;;25.00;99.90;;;;;;4886526;29;20055;-72
2023/06/24 11:24:57;;;;;;;1999.90;999.90;;;25.00;99.90;;;;;;4904526;29;20049;-72
2023/06/24 11:27:31;;;;;;;1999.90;999.90;;;25.00;99.90;;;;;;4901056;29;20060;-72
2023/06/24 11:30:04;;;;;;;1999.90;999.90;;;25.00;99.90;;;;;;4904147;29;20388;-72
2023/06/24 11:32:40;;;;;;;1999.90;999.90;;;25.10;99.90;;;;;;4903185;29;20045;-72
2023/06/24 11:35:09;;;;;;;1999.90;999.90;;;25.10;99.90;;;;;;4907316;29;20048;-72
2023/06/24 11:37:35;;;;;;;1999.90;999.90;;;25.10;99.90;;;;;;4906124;29;20516;-71
2023/06/24 11:40:04;;;;;;;1999.90;999.90;;;25.10;99.90;;;;;;4906841;29;20083;-72
2023/06/24 11:42:30;;;;;;;1999.90;999.90;;;25.10;99.90;;;;;;4905771;29;20131;-73
2023/06/24 11:45:04;;;;;;;1999.90;999.90;;;25.10;99.90;;;;;;4907201;29;20052;-71
2023/06/24 11:47:37;;;;;;;1999.90;999.90;;;25.20;99.90;;;;;;4905841;29;20076;-71
2023/06/24 11:50:05;;;;;;;1999.90;999.90;;;25.30;99.90;;;;;;4907743;29;20083;-71
2023/06/24 11:52:46;;;;;;;1999.90;999.90;;;25.30;99.90;;;;;;4904671;29;20564;-72
2023/06/24 11:55:20;;;;;;;1999.90;999.90;;;25.40;99.90;;;;;;4905743;29;20062;-71
2023/06/24 11:57:54;;;;;;;1999.90;999.90;;;25.50;99.90;;;;;;4905429;29;20056;-72
2023/06/24 12:00:25;;;;;;;1999.90;999.90;;;25.50;99.90;;;;;;4906987;29;20055;-72
2023/06/24 12:02:55;;;;;;;1999.90;999.90;;;25.60;99.90;;;;;;4906421;29;20206;-72